sensor_id;sensor_type;location;lat;lon;timestamp;P1;durP1;ratioP1;P2;durP2;ratioP2
72095;SDS011;59968;51.084;16.748;2023-12-28T00:00:43;15.20;;;5.70;;
72095;SDS011;59968;51.084;16.748;2023-12-28T00:03:35;14.60;;;5.70;;
72095;SDS011;59968;51.084;16.748;2023-12-28T00:06:06;15.00;;;5.50;;
72095;SDS011;59968;51.084;16.748;2023-12-28T00:08:40;14.10;;;5.50;;
72095;SDS011;59968;51.084;16.748;2023-12-28T00:11:22;13.10;;;5.50;;
72095;SDS011;59968;51.084;16.748;2023-12-28T00:13:52;12.10;;;4.90;;
72095;SDS011;59968;51.084;16.748;2023-12-28T00:16:23;13.40;;;5.50;;
72095;SDS011;59968;51.084;16.748;2023-12-28T00:18:57;14.50;;;5.60;;
72095;SDS011;59968;51.084;16.748;2023-12-28T00:21:31;12.80;;;5.50;;
72095;SDS011;59968;51.084;16.748;2023-12-28T00:24:01;14.00;;;5.00;;
72095;SDS011;59968;51.084;16.748;2023-12-28T00:26:32;13.60;;;5.50;;
72095;SDS011;59968;51.084;16.748;2023-12-28T00:29:03;12.00;;;5.10;;
72095;SDS011;59968;51.084;16.748;2023-12-28T00:31:34;10.90;;;4.50;;
72095;SDS011;59968;51.084;16.748;2023-12-28T00:34:06;12.50;;;4.40;;
72095;SDS011;59968;51.084;16.748;2023-12-28T00:36:38;13.40;;;5.30;;
72095;SDS011;59968;51.084;16.748;2023-12-28T00:39:11;9.80;;;4.40;;
72095;SDS011;59968;51.084;16.748;2023-12-28T00:41:41;10.20;;;4.80;;
72095;SDS011;59968;51.084;16.748;2023-12-28T00:44:15;10.10;;;4.00;;
72095;SDS011;59968;51.084;16.748;2023-12-28T00:46:45;9.70;;;4.30;;
72095;SDS011;59968;51.084;16.748;2023-12-28T00:49:18;9.90;;;4.00;;
72095;SDS011;59968;51.084;16.748;2023-12-28T00:51:49;11.40;;;4.30;;
72095;SDS011;59968;51.084;16.748;2023-12-28T00:54:20;9.90;;;3.80;;
72095;SDS011;59968;51.084;16.748;2023-12-28T00:56:51;8.80;;;3.80;;
72095;SDS011;59968;51.084;16.748;2023-12-28T00:59:21;8.50;;;3.40;;
72095;SDS011;59968;51.084;16.748;2023-12-28T01:01:52;9.70;;;3.50;;
72095;SDS011;59968;51.084;16.748;2023-12-28T01:04:27;10.30;;;3.50;;
72095;SDS011;59968;51.084;16.748;2023-12-28T01:06:58;7.50;;;3.20;;
72095;SDS011;59968;51.084;16.748;2023-12-28T01:09:32;9.60;;;3.60;;
72095;SDS011;59968;51.084;16.748;2023-12-28T01:12:04;9.20;;;3.30;;
72095;SDS011;59968;51.084;16.748;2023-12-28T01:14:36;6.30;;;3.00;;
72095;SDS011;59968;51.084;16.748;2023-12-28T01:17:06;9.00;;;2.90;;
72095;SDS011;59968;51.084;16.748;2023-12-28T01:19:39;8.50;;;3.30;;
72095;SDS011;59968;51.084;16.748;2023-12-28T01:22:12;7.50;;;3.10;;
72095;SDS011;59968;51.084;16.748;2023-12-28T01:24:46;8.90;;;3.60;;
72095;SDS011;59968;51.084;16.748;2023-12-28T01:27:19;6.10;;;3.00;;
72095;SDS011;59968;51.084;16.748;2023-12-28T01:29:50;7.00;;;3.00;;
72095;SDS011;59968;51.084;16.748;2023-12-28T01:32:20;8.60;;;3.30;;
72095;SDS011;59968;51.084;16.748;2023-12-28T01:34:56;6.30;;;2.90;;
72095;SDS011;59968;51.084;16.748;2023-12-28T01:37:29;7.20;;;3.30;;
72095;SDS011;59968;51.084;16.748;2023-12-28T01:40:04;6.10;;;2.80;;
72095;SDS011;59968;51.084;16.748;2023-12-28T01:42:37;6.60;;;2.60;;
72095;SDS011;59968;51.084;16.748;2023-12-28T01:45:10;5.90;;;3.00;;
72095;SDS011;59968;51.084;16.748;2023-12-28T01:47:44;7.30;;;2.80;;
72095;SDS011;59968;51.084;16.748;2023-12-28T01:50:17;6.10;;;2.90;;
72095;SDS011;59968;51.084;16.748;2023-12-28T01:52:54;8.10;;;3.10;;
72095;SDS011;59968;51.084;16.748;2023-12-28T01:55:29;7.10;;;3.10;;
72095;SDS011;59968;51.084;16.748;2023-12-28T01:58:01;9.10;;;3.50;;
72095;SDS011;59968;51.084;16.748;2023-12-28T02:00:35;6.70;;;2.70;;
72095;SDS011;59968;51.084;16.748;2023-12-28T02:03:11;6.70;;;2.70;;
72095;SDS011;59968;51.084;16.748;2023-12-28T02:05:42;7.10;;;3.00;;
72095;SDS011;59968;51.084;16.748;2023-12-28T02:08:13;6.80;;;3.00;;
72095;SDS011;59968;51.084;16.748;2023-12-28T02:10:43;8.30;;;3.30;;
72095;SDS011;59968;51.084;16.748;2023-12-28T02:13:14;6.50;;;2.80;;
72095;SDS011;59968;51.084;16.748;2023-12-28T02:15:45;6.30;;;2.70;;
72095;SDS011;59968;51.084;16.748;2023-12-28T02:18:30;7.30;;;2.50;;
72095;SDS011;59968;51.084;16.748;2023-12-28T02:21:08;5.50;;;2.40;;
72095;SDS011;59968;51.084;16.748;2023-12-28T02:23:48;5.70;;;2.70;;
72095;SDS011;59968;51.084;16.748;2023-12-28T02:26:22;5.10;;;2.60;;
72095;SDS011;59968;51.084;16.748;2023-12-28T02:28:52;5.60;;;2.60;;
72095;SDS011;59968;51.084;16.748;2023-12-28T02:31:28;6.70;;;2.60;;
72095;SDS011;59968;51.084;16.748;2023-12-28T02:34:06;18.30;;;7.30;;
72095;SDS011;59968;51.084;16.748;2023-12-28T02:36:48;14.70;;;6.20;;
72095;SDS011;59968;51.084;16.748;2023-12-28T02:39:19;7.50;;;3.60;;
72095;SDS011;59968;51.084;16.748;2023-12-28T02:41:51;7.50;;;3.20;;
72095;SDS011;59968;51.084;16.748;2023-12-28T02:44:20;7.20;;;3.40;;
72095;SDS011;59968;51.084;16.748;2023-12-28T02:46:50;7.10;;;2.70;;
72095;SDS011;59968;51.084;16.748;2023-12-28T02:49:23;5.60;;;2.30;;
72095;SDS011;59968;51.084;16.748;2023-12-28T02:51:52;5.10;;;2.40;;
72095;SDS011;59968;51.084;16.748;2023-12-28T02:54:21;4.70;;;2.20;;
72095;SDS011;59968;51.084;16.748;2023-12-28T02:56:51;5.10;;;2.00;;
72095;SDS011;59968;51.084;16.748;2023-12-28T02:59:20;4.80;;;2.20;;
72095;SDS011;59968;51.084;16.748;2023-12-28T03:01:52;5.00;;;2.10;;
72095;SDS011;59968;51.084;16.748;2023-12-28T03:04:21;4.50;;;2.00;;
72095;SDS011;59968;51.084;16.748;2023-12-28T03:06:54;5.10;;;2.10;;
72095;SDS011;59968;51.084;16.748;2023-12-28T03:09:23;3.80;;;2.00;;
72095;SDS011;59968;51.084;16.748;2023-12-28T03:11:53;4.40;;;2.00;;
72095;SDS011;59968;51.084;16.748;2023-12-28T03:14:22;4.80;;;1.70;;
72095;SDS011;59968;51.084;16.748;2023-12-28T03:16:52;5.40;;;2.00;;
72095;SDS011;59968;51.084;16.748;2023-12-28T03:19:22;4.40;;;1.80;;
72095;SDS011;59968;51.084;16.748;2023-12-28T03:21:51;4.20;;;2.00;;
72095;SDS011;59968;51.084;16.748;2023-12-28T03:24:20;4.00;;;1.80;;
72095;SDS011;59968;51.084;16.748;2023-12-28T03:26:50;3.50;;;1.90;;
72095;SDS011;59968;51.084;16.748;2023-12-28T03:29:19;3.70;;;1.70;;
72095;SDS011;59968;51.084;16.748;2023-12-28T03:31:48;5.70;;;2.40;;
72095;SDS011;59968;51.084;16.748;2023-12-28T03:34:23;6.30;;;2.50;;
72095;SDS011;59968;51.084;16.748;2023-12-28T03:36:52;7.20;;;2.60;;
72095;SDS011;59968;51.084;16.748;2023-12-28T03:39:22;6.90;;;2.50;;
72095;SDS011;59968;51.084;16.748;2023-12-28T03:41:52;6.40;;;2.50;;
72095;SDS011;59968;51.084;16.748;2023-12-28T03:44:25;10.40;;;3.30;;
72095;SDS011;59968;51.084;16.748;2023-12-28T03:46:55;5.30;;;2.30;;
72095;SDS011;59968;51.084;16.748;2023-12-28T03:49:24;4.00;;;1.80;;
72095;SDS011;59968;51.084;16.748;2023-12-28T03:51:54;6.60;;;2.30;;
72095;SDS011;59968;51.084;16.748;2023-12-28T03:54:24;4.40;;;2.00;;
72095;SDS011;59968;51.084;16.748;2023-12-28T03:56:54;6.10;;;2.30;;
72095;SDS011;59968;51.084;16.748;2023-12-28T03:59:23;4.40;;;1.80;;
72095;SDS011;59968;51.084;16.748;2023-12-28T04:01:56;3.90;;;1.60;;
72095;SDS011;59968;51.084;16.748;2023-12-28T04:04:25;4.00;;;2.20;;
72095;SDS011;59968;51.084;16.748;2023-12-28T04:06:55;3.40;;;1.70;;
72095;SDS011;59968;51.084;16.748;2023-12-28T04:09:25;3.70;;;1.80;;
72095;SDS011;59968;51.084;16.748;2023-12-28T04:11:54;4.50;;;1.50;;
72095;SDS011;59968;51.084;16.748;2023-12-28T04:14:24;3.90;;;1.60;;
72095;SDS011;59968;51.084;16.748;2023-12-28T04:16:53;3.40;;;1.70;;
72095;SDS011;59968;51.084;16.748;2023-12-28T04:19:22;3.50;;;1.40;;
72095;SDS011;59968;51.084;16.748;2023-12-28T04:21:52;3.70;;;1.40;;
72095;SDS011;59968;51.084;16.748;2023-12-28T04:24:26;3.30;;;1.30;;
72095;SDS011;59968;51.084;16.748;2023-12-28T04:26:55;3.70;;;1.30;;
72095;SDS011;59968;51.084;16.748;2023-12-28T04:29:24;4.70;;;1.70;;
72095;SDS011;59968;51.084;16.748;2023-12-28T04:31:54;3.10;;;1.30;;
72095;SDS011;59968;51.084;16.748;2023-12-28T04:34:24;2.70;;;1.40;;
72095;SDS011;59968;51.084;16.748;2023-12-28T04:36:54;2.60;;;1.60;;
72095;SDS011;59968;51.084;16.748;2023-12-28T04:39:26;3.00;;;1.20;;
72095;SDS011;59968;51.084;16.748;2023-12-28T04:41:55;2.70;;;1.20;;
72095;SDS011;59968;51.084;16.748;2023-12-28T04:44:24;2.30;;;1.30;;
72095;SDS011;59968;51.084;16.748;2023-12-28T04:46:54;3.50;;;1.40;;
72095;SDS011;59968;51.084;16.748;2023-12-28T04:49:24;2.80;;;1.30;;
72095;SDS011;59968;51.084;16.748;2023-12-28T04:51:53;4.20;;;1.40;;
72095;SDS011;59968;51.084;16.748;2023-12-28T04:54:23;3.10;;;1.30;;
72095;SDS011;59968;51.084;16.748;2023-12-28T04:56:54;2.90;;;1.30;;
72095;SDS011;59968;51.084;16.748;2023-12-28T04:59:25;3.20;;;1.40;;
72095;SDS011;59968;51.084;16.748;2023-12-28T05:01:55;3.90;;;1.60;;
72095;SDS011;59968;51.084;16.748;2023-12-28T05:04:25;3.10;;;1.40;;
72095;SDS011;59968;51.084;16.748;2023-12-28T05:06:54;3.50;;;1.50;;
72095;SDS011;59968;51.084;16.748;2023-12-28T05:09:24;4.10;;;1.80;;
72095;SDS011;59968;51.084;16.748;2023-12-28T05:11:53;3.70;;;1.60;;
72095;SDS011;59968;51.084;16.748;2023-12-28T05:14:22;2.80;;;1.30;;
72095;SDS011;59968;51.084;16.748;2023-12-28T05:16:52;4.30;;;1.80;;
72095;SDS011;59968;51.084;16.748;2023-12-28T05:19:21;4.10;;;1.70;;
72095;SDS011;59968;51.084;16.748;2023-12-28T05:21:51;3.20;;;1.60;;
72095;SDS011;59968;51.084;16.748;2023-12-28T05:24:22;3.70;;;1.70;;
72095;SDS011;59968;51.084;16.748;2023-12-28T05:26:54;3.30;;;1.50;;
72095;SDS011;59968;51.084;16.748;2023-12-28T05:29:26;3.50;;;1.40;;
72095;SDS011;59968;51.084;16.748;2023-12-28T05:31:56;3.40;;;1.50;;
72095;SDS011;59968;51.084;16.748;2023-12-28T05:34:25;3.50;;;1.50;;
72095;SDS011;59968;51.084;16.748;2023-12-28T05:36:55;3.20;;;1.90;;
72095;SDS011;59968;51.084;16.748;2023-12-28T05:39:24;2.00;;;1.30;;
72095;SDS011;59968;51.084;16.748;2023-12-28T05:41:53;2.10;;;1.40;;
72095;SDS011;59968;51.084;16.748;2023-12-28T05:44:22;2.90;;;1.40;;
72095;SDS011;59968;51.084;16.748;2023-12-28T05:46:51;4.30;;;1.40;;
72095;SDS011;59968;51.084;16.748;2023-12-28T05:49:21;3.60;;;2.00;;
72095;SDS011;59968;51.084;16.748;2023-12-28T05:51:50;3.70;;;1.90;;
72095;SDS011;59968;51.084;16.748;2023-12-28T05:54:20;4.00;;;1.70;;
72095;SDS011;59968;51.084;16.748;2023-12-28T05:56:49;2.90;;;1.40;;
72095;SDS011;59968;51.084;16.748;2023-12-28T05:59:18;4.40;;;1.70;;
72095;SDS011;59968;51.084;16.748;2023-12-28T06:01:50;4.90;;;1.90;;
72095;SDS011;59968;51.084;16.748;2023-12-28T06:04:23;5.00;;;1.70;;
72095;SDS011;59968;51.084;16.748;2023-12-28T06:06:54;3.90;;;2.00;;
72095;SDS011;59968;51.084;16.748;2023-12-28T06:09:29;4.60;;;1.80;;
72095;SDS011;59968;51.084;16.748;2023-12-28T06:12:07;4.00;;;2.20;;
72095;SDS011;59968;51.084;16.748;2023-12-28T06:14:38;5.40;;;2.70;;
72095;SDS011;59968;51.084;16.748;2023-12-28T06:17:10;5.00;;;2.40;;
72095;SDS011;59968;51.084;16.748;2023-12-28T06:19:42;4.30;;;2.10;;
72095;SDS011;59968;51.084;16.748;2023-12-28T06:22:13;5.70;;;2.10;;
72095;SDS011;59968;51.084;16.748;2023-12-28T06:24:46;4.40;;;2.20;;
72095;SDS011;59968;51.084;16.748;2023-12-28T06:27:17;5.30;;;2.10;;
72095;SDS011;59968;51.084;16.748;2023-12-28T06:29:57;4.40;;;2.10;;
72095;SDS011;59968;51.084;16.748;2023-12-28T06:32:29;4.10;;;1.60;;
72095;SDS011;59968;51.084;16.748;2023-12-28T06:35:03;4.90;;;1.80;;
72095;SDS011;59968;51.084;16.748;2023-12-28T06:37:38;4.40;;;2.00;;
72095;SDS011;59968;51.084;16.748;2023-12-28T06:40:09;4.50;;;1.80;;
72095;SDS011;59968;51.084;16.748;2023-12-28T06:42:41;5.20;;;1.90;;
72095;SDS011;59968;51.084;16.748;2023-12-28T06:45:17;3.60;;;1.60;;
72095;SDS011;59968;51.084;16.748;2023-12-28T06:47:58;3.50;;;1.60;;
72095;SDS011;59968;51.084;16.748;2023-12-28T06:50:30;3.80;;;2.00;;
72095;SDS011;59968;51.084;16.748;2023-12-28T06:53:02;4.30;;;1.70;;
72095;SDS011;59968;51.084;16.748;2023-12-28T06:55:37;5.80;;;1.90;;
72095;SDS011;59968;51.084;16.748;2023-12-28T06:58:08;3.80;;;1.90;;
72095;SDS011;59968;51.084;16.748;2023-12-28T07:00:39;3.20;;;1.60;;
72095;SDS011;59968;51.084;16.748;2023-12-28T07:03:12;2.80;;;1.40;;
72095;SDS011;59968;51.084;16.748;2023-12-28T07:05:44;4.30;;;2.10;;
72095;SDS011;59968;51.084;16.748;2023-12-28T07:08:15;4.40;;;1.90;;
72095;SDS011;59968;51.084;16.748;2023-12-28T07:10:51;3.70;;;1.50;;
72095;SDS011;59968;51.084;16.748;2023-12-28T07:13:23;3.20;;;2.00;;
72095;SDS011;59968;51.084;16.748;2023-12-28T07:15:55;2.80;;;1.50;;
72095;SDS011;59968;51.084;16.748;2023-12-28T07:18:29;3.60;;;1.70;;
72095;SDS011;59968;51.084;16.748;2023-12-28T07:21:00;3.90;;;1.40;;
72095;SDS011;59968;51.084;16.748;2023-12-28T07:23:32;3.70;;;1.70;;
72095;SDS011;59968;51.084;16.748;2023-12-28T07:26:04;3.60;;;1.70;;
72095;SDS011;59968;51.084;16.748;2023-12-28T07:28:36;4.90;;;1.80;;
72095;SDS011;59968;51.084;16.748;2023-12-28T07:31:08;2.80;;;1.60;;
72095;SDS011;59968;51.084;16.748;2023-12-28T07:33:58;3.40;;;1.70;;
72095;SDS011;59968;51.084;16.748;2023-12-28T07:36:32;4.70;;;1.70;;
72095;SDS011;59968;51.084;16.748;2023-12-28T07:39:04;3.60;;;1.70;;
72095;SDS011;59968;51.084;16.748;2023-12-28T07:41:38;4.70;;;2.10;;
72095;SDS011;59968;51.084;16.748;2023-12-28T07:44:09;4.70;;;1.70;;
72095;SDS011;59968;51.084;16.748;2023-12-28T07:46:45;4.10;;;1.70;;
72095;SDS011;59968;51.084;16.748;2023-12-28T07:49:17;4.50;;;2.00;;
72095;SDS011;59968;51.084;16.748;2023-12-28T07:51:48;5.30;;;2.20;;
72095;SDS011;59968;51.084;16.748;2023-12-28T07:54:20;2.90;;;1.60;;
72095;SDS011;59968;51.084;16.748;2023-12-28T07:56:52;3.20;;;1.80;;
72095;SDS011;59968;51.084;16.748;2023-12-28T07:59:23;3.70;;;1.60;;
72095;SDS011;59968;51.084;16.748;2023-12-28T08:01:55;3.70;;;2.00;;
72095;SDS011;59968;51.084;16.748;2023-12-28T08:04:27;4.40;;;1.50;;
72095;SDS011;59968;51.084;16.748;2023-12-28T08:07:00;3.30;;;2.00;;
72095;SDS011;59968;51.084;16.748;2023-12-28T08:09:35;3.90;;;1.80;;
72095;SDS011;59968;51.084;16.748;2023-12-28T08:12:07;3.10;;;1.60;;
72095;SDS011;59968;51.084;16.748;2023-12-28T08:14:38;4.50;;;1.80;;
72095;SDS011;59968;51.084;16.748;2023-12-28T08:17:10;4.10;;;2.00;;
72095;SDS011;59968;51.084;16.748;2023-12-28T08:19:41;4.20;;;1.80;;
72095;SDS011;59968;51.084;16.748;2023-12-28T08:22:13;3.70;;;2.00;;
72095;SDS011;59968;51.084;16.748;2023-12-28T08:24:44;4.70;;;2.20;;
72095;SDS011;59968;51.084;16.748;2023-12-28T08:27:16;3.30;;;1.70;;
72095;SDS011;59968;51.084;16.748;2023-12-28T08:29:51;4.80;;;1.80;;
72095;SDS011;59968;51.084;16.748;2023-12-28T08:32:24;5.40;;;2.40;;
72095;SDS011;59968;51.084;16.748;2023-12-28T08:34:56;5.50;;;2.30;;
72095;SDS011;59968;51.084;16.748;2023-12-28T08:37:28;3.60;;;2.00;;
72095;SDS011;59968;51.084;16.748;2023-12-28T08:40:00;4.90;;;2.00;;
72095;SDS011;59968;51.084;16.748;2023-12-28T08:42:34;5.20;;;2.00;;
72095;SDS011;59968;51.084;16.748;2023-12-28T08:45:05;4.20;;;2.20;;
72095;SDS011;59968;51.084;16.748;2023-12-28T08:47:41;4.50;;;2.10;;
72095;SDS011;59968;51.084;16.748;2023-12-28T08:50:13;4.90;;;2.30;;
72095;SDS011;59968;51.084;16.748;2023-12-28T08:52:49;4.30;;;2.10;;
72095;SDS011;59968;51.084;16.748;2023-12-28T08:55:21;5.00;;;2.50;;
72095;SDS011;59968;51.084;16.748;2023-12-28T08:57:52;4.80;;;2.20;;
72095;SDS011;59968;51.084;16.748;2023-12-28T09:00:24;5.50;;;2.30;;
72095;SDS011;59968;51.084;16.748;2023-12-28T09:02:56;5.60;;;2.40;;
72095;SDS011;59968;51.084;16.748;2023-12-28T09:05:27;4.50;;;2.20;;
72095;SDS011;59968;51.084;16.748;2023-12-28T09:07:59;7.10;;;2.30;;
72095;SDS011;59968;51.084;16.748;2023-12-28T09:10:30;4.20;;;2.20;;
72095;SDS011;59968;51.084;16.748;2023-12-28T09:13:04;5.70;;;2.70;;
72095;SDS011;59968;51.084;16.748;2023-12-28T09:15:35;5.70;;;2.50;;
72095;SDS011;59968;51.084;16.748;2023-12-28T09:18:06;5.80;;;2.50;;
72095;SDS011;59968;51.084;16.748;2023-12-28T09:20:38;4.50;;;2.50;;
72095;SDS011;59968;51.084;16.748;2023-12-28T09:23:12;6.00;;;2.70;;
72095;SDS011;59968;51.084;16.748;2023-12-28T09:25:47;5.60;;;2.30;;
72095;SDS011;59968;51.084;16.748;2023-12-28T09:28:22;5.60;;;2.40;;
72095;SDS011;59968;51.084;16.748;2023-12-28T09:30:53;4.90;;;2.40;;
72095;SDS011;59968;51.084;16.748;2023-12-28T09:33:28;5.10;;;2.30;;
72095;SDS011;59968;51.084;16.748;2023-12-28T09:36:02;5.50;;;2.60;;
72095;SDS011;59968;51.084;16.748;2023-12-28T09:38:37;6.20;;;3.40;;
72095;SDS011;59968;51.084;16.748;2023-12-28T09:41:12;6.50;;;2.70;;
72095;SDS011;59968;51.084;16.748;2023-12-28T09:46:28;5.00;;;2.30;;
72095;SDS011;59968;51.084;16.748;2023-12-28T09:49:01;6.60;;;2.70;;
72095;SDS011;59968;51.084;16.748;2023-12-28T09:51:34;5.80;;;2.60;;
72095;SDS011;59968;51.084;16.748;2023-12-28T09:54:09;7.20;;;3.00;;
72095;SDS011;59968;51.084;16.748;2023-12-28T09:56:40;6.20;;;2.90;;
72095;SDS011;59968;51.084;16.748;2023-12-28T09:59:11;6.80;;;3.00;;
72095;SDS011;59968;51.084;16.748;2023-12-28T10:01:46;6.60;;;2.70;;
72095;SDS011;59968;51.084;16.748;2023-12-28T10:04:18;4.60;;;2.40;;
72095;SDS011;59968;51.084;16.748;2023-12-28T10:06:53;7.10;;;3.10;;
72095;SDS011;59968;51.084;16.748;2023-12-28T10:09:24;7.80;;;3.50;;
72095;SDS011;59968;51.084;16.748;2023-12-28T10:12:00;8.50;;;3.20;;
72095;SDS011;59968;51.084;16.748;2023-12-28T10:14:33;9.00;;;3.10;;
72095;SDS011;59968;51.084;16.748;2023-12-28T10:17:08;9.40;;;3.80;;
72095;SDS011;59968;51.084;16.748;2023-12-28T10:19:39;8.90;;;3.60;;
72095;SDS011;59968;51.084;16.748;2023-12-28T10:22:13;11.50;;;3.60;;
72095;SDS011;59968;51.084;16.748;2023-12-28T10:24:47;9.30;;;3.50;;
72095;SDS011;59968;51.084;16.748;2023-12-28T10:27:22;10.50;;;3.40;;
72095;SDS011;59968;51.084;16.748;2023-12-28T10:29:57;10.10;;;3.40;;
72095;SDS011;59968;51.084;16.748;2023-12-28T10:32:32;7.00;;;3.20;;
72095;SDS011;59968;51.084;16.748;2023-12-28T10:35:11;7.60;;;3.30;;
72095;SDS011;59968;51.084;16.748;2023-12-28T10:37:46;7.30;;;3.40;;
72095;SDS011;59968;51.084;16.748;2023-12-28T10:40:21;9.90;;;4.10;;
72095;SDS011;59968;51.084;16.748;2023-12-28T10:43:00;10.20;;;4.10;;
72095;SDS011;59968;51.084;16.748;2023-12-28T10:45:35;10.90;;;4.30;;
72095;SDS011;59968;51.084;16.748;2023-12-28T10:48:16;8.50;;;3.30;;
72095;SDS011;59968;51.084;16.748;2023-12-28T10:50:57;5.70;;;3.20;;
72095;SDS011;59968;51.084;16.748;2023-12-28T11:02:04;5.40;;;2.60;;
72095;SDS011;59968;51.084;16.748;2023-12-28T11:07:34;7.00;;;3.20;;
72095;SDS011;59968;51.084;16.748;2023-12-28T11:10:08;6.30;;;3.00;;
72095;SDS011;59968;51.084;16.748;2023-12-28T11:12:42;6.90;;;3.00;;
72095;SDS011;59968;51.084;16.748;2023-12-28T11:15:15;6.00;;;2.90;;
72095;SDS011;59968;51.084;16.748;2023-12-28T11:17:48;5.80;;;2.80;;
72095;SDS011;59968;51.084;16.748;2023-12-28T11:20:23;7.50;;;3.20;;
72095;SDS011;59968;51.084;16.748;2023-12-28T11:23:00;7.20;;;3.60;;
72095;SDS011;59968;51.084;16.748;2023-12-28T11:25:33;7.70;;;3.30;;
72095;SDS011;59968;51.084;16.748;2023-12-28T11:28:09;5.70;;;2.60;;
72095;SDS011;59968;51.084;16.748;2023-12-28T11:30:44;5.80;;;2.90;;
72095;SDS011;59968;51.084;16.748;2023-12-28T11:33:19;6.40;;;3.00;;
72095;SDS011;59968;51.084;16.748;2023-12-28T11:35:52;6.40;;;2.60;;
72095;SDS011;59968;51.084;16.748;2023-12-28T11:38:25;6.60;;;2.80;;
72095;SDS011;59968;51.084;16.748;2023-12-28T11:40:59;9.20;;;3.50;;
72095;SDS011;59968;51.084;16.748;2023-12-28T11:43:35;8.40;;;3.20;;
72095;SDS011;59968;51.084;16.748;2023-12-28T11:46:10;7.80;;;3.00;;
72095;SDS011;59968;51.084;16.748;2023-12-28T11:48:43;5.90;;;2.70;;
72095;SDS011;59968;51.084;16.748;2023-12-28T11:51:17;4.40;;;2.40;;
72095;SDS011;59968;51.084;16.748;2023-12-28T11:54:01;5.00;;;2.20;;
72095;SDS011;59968;51.084;16.748;2023-12-28T11:56:36;5.40;;;2.50;;
72095;SDS011;59968;51.084;16.748;2023-12-28T11:59:10;5.00;;;2.30;;
72095;SDS011;59968;51.084;16.748;2023-12-28T12:01:52;5.80;;;2.60;;
72095;SDS011;59968;51.084;16.748;2023-12-28T12:04:51;4.80;;;2.10;;
72095;SDS011;59968;51.084;16.748;2023-12-28T12:07:26;6.40;;;2.60;;
72095;SDS011;59968;51.084;16.748;2023-12-28T12:10:03;5.50;;;2.70;;
72095;SDS011;59968;51.084;16.748;2023-12-28T12:12:40;6.00;;;2.50;;
72095;SDS011;59968;51.084;16.748;2023-12-28T12:15:39;6.70;;;2.80;;
72095;SDS011;59968;51.084;16.748;2023-12-28T12:18:13;5.70;;;2.70;;
72095;SDS011;59968;51.084;16.748;2023-12-28T12:20:48;6.00;;;2.60;;
72095;SDS011;59968;51.084;16.748;2023-12-28T12:23:24;5.70;;;2.60;;
72095;SDS011;59968;51.084;16.748;2023-12-28T12:26:00;5.30;;;2.70;;
72095;SDS011;59968;51.084;16.748;2023-12-28T12:28:35;6.70;;;3.00;;
72095;SDS011;59968;51.084;16.748;2023-12-28T12:31:35;6.30;;;2.60;;
72095;SDS011;59968;51.084;16.748;2023-12-28T12:34:08;5.50;;;2.60;;
72095;SDS011;59968;51.084;16.748;2023-12-28T12:36:42;5.40;;;2.50;;
72095;SDS011;59968;51.084;16.748;2023-12-28T12:39:17;6.40;;;2.70;;
72095;SDS011;59968;51.084;16.748;2023-12-28T12:41:53;7.70;;;3.20;;
72095;SDS011;59968;51.084;16.748;2023-12-28T12:44:32;7.30;;;3.60;;
72095;SDS011;59968;51.084;16.748;2023-12-28T12:47:03;7.90;;;3.00;;
72095;SDS011;59968;51.084;16.748;2023-12-28T12:49:35;8.00;;;3.70;;
72095;SDS011;59968;51.084;16.748;2023-12-28T12:52:12;11.00;;;4.00;;
72095;SDS011;59968;51.084;16.748;2023-12-28T12:54:52;12.30;;;4.50;;
72095;SDS011;59968;51.084;16.748;2023-12-28T12:57:29;9.60;;;4.10;;
72095;SDS011;59968;51.084;16.748;2023-12-28T13:00:03;10.20;;;3.90;;
72095;SDS011;59968;51.084;16.748;2023-12-28T13:02:40;8.50;;;3.80;;
72095;SDS011;59968;51.084;16.748;2023-12-28T13:05:18;5.80;;;3.10;;
72095;SDS011;59968;51.084;16.748;2023-12-28T13:08:06;6.60;;;3.40;;
72095;SDS011;59968;51.084;16.748;2023-12-28T13:10:38;7.40;;;3.40;;
72095;SDS011;59968;51.084;16.748;2023-12-28T13:13:13;7.70;;;3.20;;
72095;SDS011;59968;51.084;16.748;2023-12-28T13:15:45;6.00;;;3.00;;
72095;SDS011;59968;51.084;16.748;2023-12-28T13:18:18;6.50;;;3.00;;
72095;SDS011;59968;51.084;16.748;2023-12-28T13:20:49;7.30;;;3.50;;
72095;SDS011;59968;51.084;16.748;2023-12-28T13:23:52;7.10;;;2.90;;
72095;SDS011;59968;51.084;16.748;2023-12-28T13:26:27;7.80;;;3.30;;
72095;SDS011;59968;51.084;16.748;2023-12-28T13:29:01;11.60;;;4.00;;
72095;SDS011;59968;51.084;16.748;2023-12-28T13:31:34;12.20;;;4.80;;
72095;SDS011;59968;51.084;16.748;2023-12-28T13:34:07;11.30;;;4.80;;
72095;SDS011;59968;51.084;16.748;2023-12-28T13:36:38;12.80;;;5.60;;
72095;SDS011;59968;51.084;16.748;2023-12-28T13:39:11;14.20;;;5.40;;
72095;SDS011;59968;51.084;16.748;2023-12-28T13:41:49;15.20;;;6.50;;
72095;SDS011;59968;51.084;16.748;2023-12-28T13:44:26;17.70;;;6.60;;
72095;SDS011;59968;51.084;16.748;2023-12-28T13:47:01;15.50;;;6.20;;
72095;SDS011;59968;51.084;16.748;2023-12-28T13:49:40;15.70;;;6.60;;
72095;SDS011;59968;51.084;16.748;2023-12-28T13:52:12;16.20;;;6.20;;
72095;SDS011;59968;51.084;16.748;2023-12-28T13:54:46;18.00;;;6.60;;
72095;SDS011;59968;51.084;16.748;2023-12-28T13:57:19;13.70;;;5.10;;
72095;SDS011;59968;51.084;16.748;2023-12-28T13:59:54;16.80;;;6.00;;
72095;SDS011;59968;51.084;16.748;2023-12-28T14:02:40;16.30;;;6.60;;
72095;SDS011;59968;51.084;16.748;2023-12-28T14:05:12;16.10;;;5.90;;
72095;SDS011;59968;51.084;16.748;2023-12-28T14:07:43;10.50;;;4.80;;
72095;SDS011;59968;51.084;16.748;2023-12-28T14:10:15;12.60;;;4.90;;
72095;SDS011;59968;51.084;16.748;2023-12-28T14:12:46;12.30;;;5.10;;
72095;SDS011;59968;51.084;16.748;2023-12-28T14:15:18;13.20;;;5.80;;
72095;SDS011;59968;51.084;16.748;2023-12-28T14:17:55;10.20;;;4.50;;
72095;SDS011;59968;51.084;16.748;2023-12-28T14:20:30;12.60;;;5.30;;
72095;SDS011;59968;51.084;16.748;2023-12-28T14:23:07;15.70;;;6.30;;
72095;SDS011;59968;51.084;16.748;2023-12-28T14:25:40;16.20;;;6.60;;
72095;SDS011;59968;51.084;16.748;2023-12-28T14:28:12;15.10;;;6.40;;
72095;SDS011;59968;51.084;16.748;2023-12-28T14:30:46;10.80;;;4.50;;
72095;SDS011;59968;51.084;16.748;2023-12-28T14:33:18;10.40;;;4.90;;
72095;SDS011;59968;51.084;16.748;2023-12-28T14:35:51;9.40;;;4.30;;
72095;SDS011;59968;51.084;16.748;2023-12-28T14:38:24;8.40;;;3.90;;
72095;SDS011;59968;51.084;16.748;2023-12-28T14:40:56;9.30;;;4.40;;
72095;SDS011;59968;51.084;16.748;2023-12-28T14:43:28;9.80;;;4.20;;
72095;SDS011;59968;51.084;16.748;2023-12-28T14:46:00;10.40;;;4.20;;
72095;SDS011;59968;51.084;16.748;2023-12-28T14:48:32;10.30;;;4.80;;
72095;SDS011;59968;51.084;16.748;2023-12-28T14:51:07;10.60;;;4.70;;
72095;SDS011;59968;51.084;16.748;2023-12-28T14:53:39;9.70;;;4.80;;
72095;SDS011;59968;51.084;16.748;2023-12-28T14:56:10;10.60;;;4.70;;
72095;SDS011;59968;51.084;16.748;2023-12-28T14:58:45;8.20;;;4.30;;
72095;SDS011;59968;51.084;16.748;2023-12-28T15:01:18;11.00;;;4.70;;
72095;SDS011;59968;51.084;16.748;2023-12-28T15:03:56;8.40;;;3.80;;
72095;SDS011;59968;51.084;16.748;2023-12-28T15:06:29;12.20;;;4.80;;
72095;SDS011;59968;51.084;16.748;2023-12-28T15:09:01;10.70;;;4.70;;
72095;SDS011;59968;51.084;16.748;2023-12-28T15:11:34;11.30;;;4.10;;
72095;SDS011;59968;51.084;16.748;2023-12-28T15:14:18;12.10;;;4.40;;
72095;SDS011;59968;51.084;16.748;2023-12-28T15:16:52;11.40;;;4.40;;
72095;SDS011;59968;51.084;16.748;2023-12-28T15:19:24;9.20;;;4.20;;